Strona główna
METAR-TAF:

METAR-TAF

Lotnisko :

Ashland, Kentucky, Stany Zjednoczone

Szerokość geograficzna: 38-33-16N, Długość geograficzna: 082-44-17W, wysokość: 166 m

Aktualna obserwacja pogody

Raport powstał 36 minut temu, godzina 13:56 UTC
Wiatr 6 kt z kierunków zmiennych
Temperatura 26°C
Wilgotność 79%
Ciśnienie 1016 hPa
Widzialność: 16.1 km
Zachmurzenie całkowite na wysokości 2500 ft

METAR: KDWU 171356Z AUTO VRB06KT 10SM OVC025 26/22 A2999 RMK AO2 SLP151 T02610222

czas: 10:32 (14:32 UTC)


TAF: brakujący

Obserwacja i prognoza pogody dla ponad 4000 lotnisk (raport METAR i TAF).

Dostępne stacje oznaczono żółtymi i czerwonymi punktami na mapie.

Najedź kursorem aby zobaczyć nazwę stacji.

Kliknij aby zobaczyć obserwacje i prognozy pogody.

Aby zmienić mapę: kliknij na zielony przycisk z czarnym krzyżykiem, aby powiększyć; na zielony przycisk z myślnikiem, aby pomniejszyć; na zielone strzałki, aby przejść do map sąsiednich.


METAR-TAF: